Time;durP1;ratioP1;P1;durP2;ratioP2;P2;SDS_P1;SDS_P2;PMS_P1;PMS_P2;Temp;Humidity;BMP_temperature;BMP_pressure;BME280_temperature;BME280_humidity;BME280_pressure;Samples;Min_cycle;Max_cycle;Signal;HPM_P1;HPM_P2
2021/12/08 00:00:05;;;;;;;4.13;3.17;;;;;;;2.42;100.00;-23883.44;5051791;28;20173;-72
2021/12/08 00:02:31;;;;;;;3.50;3.20;;;;;;;2.43;100.00;-23883.88;5051656;28;20271;-69
2021/12/08 00:04:56;;;;;;;3.87;3.30;;;;;;;2.03;100.00;-23872.47;5051977;28;20642;-70
2021/12/08 00:07:22;;;;;;;3.87;3.20;;;;;;;2.36;100.00;-23881.88;5051585;28;20594;-70
2021/12/08 00:10:00;;;;;;;4.53;3.50;;;;;;;2.24;100.00;-23878.47;5051905;28;20182;-70
2021/12/08 00:15:09;;;;;;;3.83;3.43;;;;;;;2.03;100.00;-23872.59;5051805;28;20189;-69
2021/12/08 00:17:35;;;;;;;3.77;3.13;;;;;;;1.99;100.00;-23871.47;5052011;28;20170;-69
2021/12/08 00:20:03;;;;;;;4.27;3.50;;;;;;;2.03;100.00;-23872.47;5051977;28;20178;-69
2021/12/08 00:22:29;;;;;;;4.07;3.30;;;;;;;2.02;100.00;-23872.31;5050282;28;20241;-68
2021/12/08 00:24:54;;;;;;;4.40;3.50;;;;;;;2.37;100.00;-23882.03;5050961;28;20202;-69
2021/12/08 00:27:20;;;;;;;4.63;3.43;;;;;;;2.35;100.00;-23881.59;5052193;28;20266;-68
2021/12/08 00:29:45;;;;;;;3.47;3.17;;;;;;;1.93;100.00;-23869.75;5051678;28;20163;-68
2021/12/08 00:32:11;;;;;;;4.03;3.30;;;;;;;2.17;100.00;-23876.47;5056354;28;20620;-69
2021/12/08 00:34:38;;;;;;;3.40;3.10;;;;;;;2.09;100.00;-23874.31;5055602;28;20174;-69
2021/12/08 00:37:04;;;;;;;3.83;3.10;;;;;;;2.38;100.00;-23882.31;5055631;28;20660;-70
2021/12/08 00:39:30;;;;;;;3.57;2.90;;;;;;;2.19;100.00;-23877.03;5054875;28;20638;-70
2021/12/08 00:41:55;;;;;;;5.33;3.27;;;;;;;2.36;100.00;-23881.88;5055269;28;20222;-70
2021/12/08 00:44:20;;;;;;;3.97;3.17;;;;;;;2.10;100.00;-23874.47;5054017;28;20201;-70
2021/12/08 00:46:46;;;;;;;4.17;3.17;;;;;;;2.03;100.00;-23872.47;5055408;28;20185;-71
2021/12/08 00:49:13;;;;;;;3.57;3.10;;;;;;;2.40;100.00;-23883.03;5055234;28;20257;-70
2021/12/08 00:51:39;;;;;;;3.40;3.10;;;;;;;2.48;100.00;-23885.16;5055436;28;20561;-70
2021/12/08 00:54:05;;;;;;;4.17;3.03;;;;;;;1.88;100.00;-23868.31;5055177;28;20167;-69
2021/12/08 00:56:30;;;;;;;3.90;3.47;;;;;;;2.52;100.00;-23886.44;5055206;28;20171;-70
2021/12/08 00:58:57;;;;;;;3.77;3.30;;;;;;;2.46;100.00;-23884.75;5053607;28;20197;-69
2021/12/08 01:01:22;;;;;;;3.33;3.03;;;;;;;2.60;100.00;-23888.72;5055527;28;20197;-70
2021/12/08 01:03:49;;;;;;;4.30;3.00;;;;;;;2.56;100.00;-23887.44;5053753;28;20552;-70
2021/12/08 01:06:17;;;;;;;3.60;3.27;;;;;;;2.30;100.00;-23880.16;5053312;28;20281;-70
2021/12/08 01:08:42;;;;;;;3.30;3.00;;;;;;;2.55;100.00;-23887.31;5055577;28;20525;-71
2021/12/08 01:11:18;;;;;;;3.63;3.00;;;;;;;2.62;100.00;-23889.31;5054542;28;20177;-71
2021/12/08 01:13:44;;;;;;;3.20;2.90;;;;;;;2.40;100.00;-23883.03;5054710;28;20610;-71
2021/12/08 01:16:10;;;;;;;3.30;3.00;;;;;;;2.45;100.00;-23884.44;5054499;28;20187;-71
2021/12/08 01:18:35;;;;;;;3.47;3.17;;;;;;;2.25;100.00;-23878.59;5053759;28;20179;-71
2021/12/08 01:21:07;;;;;;;3.40;3.10;;;;;;;2.45;100.00;-23884.44;5053054;28;20181;-71
2021/12/08 01:23:33;;;;;;;3.20;2.90;;;;;;;2.39;100.00;-23882.59;5054382;28;20284;-71
2021/12/08 01:25:59;;;;;;;3.90;3.37;;;;;;;2.73;100.00;-23892.31;5054361;28;20191;-71
2021/12/08 01:28:24;;;;;;;3.70;3.30;;;;;;;2.71;100.00;-23891.72;5054373;28;20273;-71
2021/12/08 01:30:53;;;;;;;3.30;3.00;;;;;;;2.13;100.00;-23875.31;5054112;28;20194;-71
2021/12/08 01:33:20;;;;;;;4.17;3.40;;;;;;;2.33;100.00;-23881.03;5052607;28;20213;-71
2021/12/08 01:35:45;;;;;;;3.47;3.07;;;;;;;2.26;100.00;-23878.88;5052687;28;20524;-71
2021/12/08 01:38:11;;;;;;;3.10;2.80;;;;;;;2.56;100.00;-23887.59;5053047;28;20174;-70
2021/12/08 01:40:37;;;;;;;3.93;2.80;;;;;;;2.57;100.00;-23887.88;5054336;28;20189;-71
2021/12/08 01:43:04;;;;;;;2.93;2.63;;;;;;;2.65;100.00;-23890.00;5053558;28;20211;-71
2021/12/08 01:48:19;;;;;;;3.50;2.93;;;;;;;2.59;100.00;-23888.31;5054314;28;20229;-69
2021/12/08 01:50:48;;;;;;;3.40;3.10;;;;;;;2.31;100.00;-23880.47;5054654;28;20533;-70
2021/12/08 01:53:14;;;;;;;4.60;3.00;;;;;;;2.81;100.00;-23894.44;5053590;28;20189;-71
2021/12/08 01:55:40;;;;;;;3.53;3.20;;;;;;;2.82;100.00;-23894.88;5052675;28;20224;-72
2021/12/08 01:58:07;;;;;;;3.20;2.90;;;;;;;2.84;100.00;-23895.44;5053838;28;20182;-71
2021/12/08 02:00:40;;;;;;;3.60;3.00;;;;;;;2.92;100.00;-23897.56;5054104;28;20174;-71
2021/12/08 02:03:06;;;;;;;3.50;2.90;;;;;;;2.52;100.00;-23886.44;5053763;28;20253;-71
2021/12/08 02:05:32;;;;;;;3.77;2.90;;;;;;;2.76;100.00;-23893.00;5053802;28;20194;-71
2021/12/08 02:07:58;;;;;;;2.97;2.67;;;;;;;2.60;100.00;-23888.72;5053613;28;20175;-72
2021/12/08 02:10:24;;;;;;;3.37;3.07;;;;;;;2.92;100.00;-23897.56;5053848;28;20167;-72
2021/12/08 02:12:49;;;;;;;3.00;2.70;;;;;;;2.68;100.00;-23891.00;5053646;28;20206;-72
2021/12/08 02:15:17;;;;;;;3.40;3.10;;;;;;;2.20;100.00;-23877.47;5053200;28;20206;-71
2021/12/08 02:17:45;;;;;;;3.77;3.33;;;;;;;2.99;100.00;-23899.56;5053944;28;20244;-71
2021/12/08 02:20:11;;;;;;;3.07;2.70;;;;;;;2.95;100.00;-23898.59;5054102;28;20179;-71
2021/12/08 02:22:37;;;;;;;3.30;3.00;;;;;;;2.81;100.00;-23894.44;5053758;28;20203;-72
2021/12/08 02:25:06;;;;;;;3.37;2.90;;;;;;;2.87;100.00;-23896.28;5052298;28;20189;-72
2021/12/08 02:27:33;;;;;;;3.67;3.07;;;;;;;3.10;100.00;-23902.72;5051972;28;20185;-71
2021/12/08 02:30:08;;;;;;;3.60;2.80;;;;;;;2.72;100.00;-23892.03;5051906;28;20584;-71
2021/12/08 02:48:53;;;;;;;3.60;2.90;;;;;;;3.25;100.00;-23907.00;5057366;28;20237;-69
2021/12/08 02:51:20;;;;;;;3.43;2.90;;;;;;;3.26;100.00;-23907.28;5054715;28;20587;-70
2021/12/08 02:53:47;;;;;;;3.33;2.70;;;;;;;3.30;100.00;-23908.28;5053478;28;20167;-71
2021/12/08 02:56:16;;;;;;;3.27;2.97;;;;;;;2.91;100.00;-23897.28;5052210;28;20712;-70
2021/12/08 02:58:41;;;;;;;2.67;2.43;;;;;;;3.30;100.00;-23908.28;5052678;28;20232;-70
2021/12/08 03:01:08;;;;;;;3.40;3.00;;;;;;;3.28;100.00;-23907.72;5052631;28;20178;-70
2021/12/08 03:03:34;;;;;;;3.10;2.50;;;;;;;3.11;100.00;-23903.00;5052934;28;20212;-70
2021/12/08 03:06:00;;;;;;;4.97;2.80;;;;;;;3.33;100.00;-23909.13;5052238;28;20190;-70
2021/12/08 03:08:26;;;;;;;3.73;2.40;;;;;;;3.40;100.00;-23911.28;5052903;28;20183;-71
2021/12/08 03:10:52;;;;;;;3.23;2.90;;;;;;;3.36;100.00;-23910.00;5052988;28;20186;-71
2021/12/08 03:13:19;;;;;;;3.57;2.77;;;;;;;3.36;100.00;-23910.13;5054828;28;20210;-70
2021/12/08 03:15:45;;;;;;;2.90;2.60;;;;;;;3.06;100.00;-23901.56;5051554;28;20213;-70
2021/12/08 03:18:11;;;;;;;3.03;2.63;;;;;;;3.52;100.00;-23914.69;5051895;28;20190;-70
2021/12/08 03:20:39;;;;;;;3.13;2.83;;;;;;;3.33;100.00;-23909.13;5051265;28;20641;-70
2021/12/08 03:23:07;;;;;;;3.70;3.00;;;;;;;3.44;100.00;-23912.25;5052320;28;20336;-70
2021/12/08 03:25:38;;;;;;;3.30;2.53;;;;;;;3.56;100.00;-23915.81;5052383;28;20178;-70
2021/12/08 03:28:13;;;;;;;3.10;2.80;;;;;;;3.51;100.00;-23914.25;5052653;28;20216;-70
2021/12/08 03:30:41;;;;;;;3.40;3.10;;;;;;;3.21;100.00;-23905.84;5052180;28;20539;-70
2021/12/08 03:33:08;;;;;;;3.27;2.90;;;;;;;3.13;100.00;-23903.56;5052756;28;20266;-70
2021/12/08 03:35:34;;;;;;;3.47;3.00;;;;;;;2.99;100.00;-23899.56;5052618;28;20512;-69
2021/12/08 03:37:59;;;;;;;3.43;3.00;;;;;;;3.36;100.00;-23910.13;5052340;28;20261;-69
2021/12/08 03:40:27;;;;;;;3.30;3.00;;;;;;;3.09;100.00;-23902.56;5050399;28;20183;-70
2021/12/08 03:42:55;;;;;;;3.23;2.57;;;;;;;3.14;100.00;-23903.72;5051456;28;20288;-70
2021/12/08 03:45:34;;;;;;;3.43;3.10;;;;;;;3.00;100.00;-23900.00;5052284;28;20179;-69
2021/12/08 03:48:08;;;;;;;3.30;2.97;;;;;;;3.01;100.00;-23900.28;5052716;28;20533;-70
2021/12/08 03:50:37;;;;;;;3.70;3.20;;;;;;;3.09;100.00;-23902.44;5052352;28;20193;-70
2021/12/08 03:53:06;;;;;;;3.73;3.10;;;;;;;2.66;100.00;-23890.31;5052414;28;20578;-69
2021/12/08 03:55:32;;;;;;;4.23;3.57;;;;;;;3.55;100.00;-23915.41;5052369;28;20182;-71
2021/12/08 03:57:58;;;;;;;5.07;3.43;;;;;;;3.22;100.00;-23906.13;5050696;28;20171;-69
2021/12/08 04:00:26;;;;;;;4.03;3.50;;;;;;;3.44;100.00;-23912.41;5052125;28;20213;-68
2021/12/08 04:02:52;;;;;;;4.00;3.27;;;;;;;3.23;100.00;-23906.28;5051931;28;20198;-69
2021/12/08 04:05:31;;;;;;;4.40;3.43;;;;;;;3.61;100.00;-23916.97;5052357;28;20174;-69
2021/12/08 04:08:03;;;;;;;4.17;3.30;;;;;;;3.32;100.00;-23909.00;5052501;28;20247;-69
2021/12/08 04:10:29;;;;;;;4.20;3.67;;;;;;;3.20;100.00;-23905.56;5050585;28;20187;-69
2021/12/08 04:12:55;;;;;;;4.20;3.53;;;;;;;3.61;100.00;-23916.97;5052179;28;20217;-70
2021/12/08 04:15:27;;;;;;;4.80;3.77;;;;;;;3.56;100.00;-23915.81;5050428;28;20719;-72
2021/12/08 04:17:54;;;;;;;3.87;3.47;;;;;;;3.53;100.00;-23914.97;5082916;28;20201;-70
2021/12/08 04:20:29;;;;;;;4.80;3.87;;;;;;;3.17;100.00;-23904.56;5051568;28;20186;-70
2021/12/08 04:22:57;;;;;;;3.47;3.17;;;;;;;3.69;100.00;-23919.41;5050586;28;20224;-70
2021/12/08 04:25:27;;;;;;;3.87;3.40;;;;;;;3.50;100.00;-23913.97;5050255;28;20182;-69
2021/12/08 04:27:55;;;;;;;4.80;3.80;;;;;;;3.26;100.00;-23907.28;5051851;28;20171;-69
2021/12/08 04:30:28;;;;;;;4.53;3.87;;;;;;;3.54;100.00;-23915.13;5050312;28;20187;-68
2021/12/08 04:32:54;;;;;;;4.53;3.90;;;;;;;3.77;100.00;-23921.53;5049746;28;20258;-69
2021/12/08 04:35:21;;;;;;;4.23;3.80;;;;;;;3.47;100.00;-23913.25;5050889;28;20269;-69
2021/12/08 04:37:52;;;;;;;4.43;3.70;;;;;;;3.75;100.00;-23920.97;5048700;28;20744;-69
2021/12/08 04:40:31;;;;;;;4.60;3.87;;;;;;;3.79;100.00;-23922.09;5049767;28;20555;-69
2021/12/08 04:45:54;;;;;;;5.13;3.97;;;;;;;3.75;100.00;-23920.97;5050554;28;20555;-69
2021/12/08 05:10:16;;;;;;;6.60;5.17;;;;;;;3.89;100.00;-23924.94;5050085;28;20210;-70
2021/12/08 05:12:43;;;;;;;7.83;5.40;;;;;;;3.92;100.00;-23925.94;5049249;28;20171;-71
2021/12/08 05:15:15;;;;;;;8.20;6.30;;;;;;;3.93;100.00;-23926.09;5050382;28;20237;-71
2021/12/08 05:17:45;;;;;;;8.27;5.27;;;;;;;3.66;100.00;-23918.41;5050241;28;20506;-70
2021/12/08 05:20:17;;;;;;;8.87;5.80;;;;;;;3.54;100.00;-23915.25;5054390;28;20607;-72
2021/12/08 05:22:49;;;;;;;7.03;5.23;;;;;;;3.73;100.00;-23920.38;5054236;28;20197;-73
2021/12/08 05:25:19;;;;;;;7.37;5.50;;;;;;;3.31;100.00;-23908.56;5054245;28;20155;-72
2021/12/08 05:27:47;;;;;;;6.00;5.00;;;;;;;3.28;100.00;-23907.72;5053925;28;20179;-72
2021/12/08 05:30:16;;;;;;;6.73;4.93;;;;;;;3.38;100.00;-23910.56;5053547;28;20217;-71
2021/12/08 05:32:42;;;;;;;6.77;5.07;;;;;;;3.78;100.00;-23921.97;5054507;28;20190;-71
2021/12/08 05:35:11;;;;;;;7.93;5.37;;;;;;;3.80;100.00;-23922.38;5054438;28;20248;-72
2021/12/08 05:37:37;;;;;;;6.70;5.33;;;;;;;3.77;100.00;-23921.53;5051354;28;20206;-69
2021/12/08 05:40:08;;;;;;;7.47;5.67;;;;;;;3.42;100.00;-23911.69;5053762;28;20170;-69
2021/12/08 05:42:35;;;;;;;8.20;5.60;;;;;;;3.78;100.00;-23921.97;5051925;28;20237;-71
2021/12/08 05:45:04;;;;;;;10.10;5.70;;;;;;;3.53;100.00;-23914.84;5053222;28;20594;-70
2021/12/08 05:47:30;;;;;;;7.30;5.60;;;;;;;3.80;100.00;-23922.38;5053653;28;20186;-70
2021/12/08 05:49:57;;;;;;;7.13;5.53;;;;;;;3.49;100.00;-23913.69;5053083;28;20547;-71
2021/12/08 05:52:23;;;;;;;7.47;5.57;;;;;;;3.81;100.00;-23922.66;5051350;28;20268;-71
2021/12/08 05:54:50;;;;;;;8.17;6.03;;;;;;;3.69;100.00;-23919.25;5053260;28;20237;-69
2021/12/08 05:57:29;;;;;;;8.53;6.03;;;;;;;3.70;100.00;-23919.69;5052977;28;20185;-70
2021/12/08 05:59:56;;;;;;;8.80;6.53;;;;;;;3.84;100.00;-23923.66;5051499;28;20242;-72
2021/12/08 06:02:30;;;;;;;7.13;5.63;;;;;;;3.43;100.00;-23911.97;5050828;28;20206;-71
2021/12/08 06:04:56;;;;;;;9.53;6.50;;;;;;;3.53;100.00;-23914.84;5045602;28;20182;-70
2021/12/08 06:07:22;;;;;;;8.30;6.13;;;;;;;3.75;100.00;-23921.09;5081980;28;20186;-70
2021/12/08 06:09:49;;;;;;;8.30;5.77;;;;;;;3.75;100.00;-23920.97;5052759;28;20194;-70
2021/12/08 06:12:15;;;;;;;8.67;6.70;;;;;;;4.07;100.00;-23929.94;5052380;28;20182;-71
2021/12/08 06:14:42;;;;;;;9.87;6.30;;;;;;;3.42;100.00;-23911.69;5052518;28;20183;-71
2021/12/08 06:17:13;;;;;;;10.13;6.67;;;;;;;3.97;100.00;-23927.22;5051136;28;20720;-72
2021/12/08 06:19:42;;;;;;;10.60;6.53;;;;;;;3.73;100.00;-23920.53;5052678;28;20186;-71
2021/12/08 06:22:10;;;;;;;9.93;6.47;;;;;;;4.02;100.00;-23928.66;5051614;28;20681;-71
2021/12/08 06:24:36;;;;;;;10.10;6.90;;;;;;;4.10;100.00;-23930.78;5052828;28;20199;-71
2021/12/08 06:27:01;;;;;;;10.07;7.33;;;;;;;3.74;100.00;-23920.81;5053133;28;20197;-71
2021/12/08 06:29:27;;;;;;;10.67;7.30;;;;;;;3.87;100.00;-23924.38;5051809;28;20555;-71
2021/12/08 06:31:57;;;;;;;9.23;6.67;;;;;;;3.99;100.00;-23927.81;5051191;28;20253;-71
2021/12/08 06:34:24;;;;;;;11.83;7.50;;;;;;;4.19;100.00;-23933.34;5054156;28;20166;-72
2021/12/08 06:36:59;;;;;;;11.83;7.90;;;;;;;4.12;100.00;-23931.50;5050753;28;20174;-71
2021/12/08 06:39:34;;;;;;;10.27;6.90;;;;;;;4.13;100.00;-23931.66;5052077;28;20698;-70
2021/12/08 06:42:06;;;;;;;9.10;6.73;;;;;;;4.17;100.00;-23932.78;5050974;28;20366;-70
2021/12/08 06:44:40;;;;;;;12.07;7.50;;;;;;;4.15;100.00;-23932.34;5050394;28;20186;-70
2021/12/08 06:47:07;;;;;;;14.77;7.80;;;;;;;4.25;100.00;-23935.06;5082765;28;20187;-71
2021/12/08 06:49:33;;;;;;;12.17;8.53;;;;;;;4.29;100.00;-23936.34;5052020;28;20186;-70
2021/12/08 06:52:06;;;;;;;12.53;8.67;;;;;;;4.24;100.00;-23934.91;5052474;28;20649;-70
2021/12/08 06:54:36;;;;;;;15.40;9.63;;;;;;;4.20;100.00;-23933.63;5051531;28;20174;-70
2021/12/08 06:57:07;;;;;;;14.03;9.00;;;;;;;4.37;100.00;-23938.47;5082527;28;20559;-72
2021/12/08 06:59:50;;;;;;;15.10;9.70;;;;;;;4.48;100.00;-23941.63;5049371;28;20674;-72
2021/12/08 07:02:31;;;;;;;13.83;9.53;;;;;;;4.31;100.00;-23936.91;5036859;28;20263;-72
2021/12/08 07:05:11;;;;;;;15.33;9.90;;;;;;;4.52;100.00;-23942.75;5052151;28;20166;-71
2021/12/08 07:07:40;;;;;;;16.57;10.40;;;;;;;4.39;100.00;-23939.06;5050934;28;20178;-72
2021/12/08 07:10:22;;;;;;;15.60;10.80;;;;;;;4.65;100.00;-23946.31;5052280;28;20167;-71
2021/12/08 07:13:21;;;;;;;17.47;10.77;;;;;;;4.45;100.00;-23940.91;5052327;28;20181;-71
2021/12/08 07:15:56;;;;;;;18.67;11.27;;;;;;;4.67;100.00;-23946.88;5055622;28;20217;-72
2021/12/08 07:18:27;;;;;;;17.60;11.43;;;;;;;4.78;100.00;-23950.16;5051469;28;20538;-73
2021/12/08 07:21:01;;;;;;;18.00;11.13;;;;;;;4.36;100.00;-23938.34;5052644;28;20171;-72
2021/12/08 07:23:36;;;;;;;18.37;11.63;;;;;;;4.41;100.00;-23939.75;5052361;28;20233;-71
2021/12/08 07:26:04;;;;;;;17.80;11.43;;;;;;;4.28;100.00;-23935.91;5052600;28;20637;-71
2021/12/08 07:28:30;;;;;;;18.33;11.43;;;;;;;4.75;100.00;-23949.16;5052114;28;20174;-72
2021/12/08 07:31:00;;;;;;;17.27;11.07;;;;;;;4.52;100.00;-23942.75;5052061;28;20192;-72
2021/12/08 07:33:27;;;;;;;18.40;11.17;;;;;;;4.73;100.00;-23948.59;5052397;28;20170;-73
2021/12/08 07:35:56;;;;;;;16.60;11.43;;;;;;;4.75;100.00;-23949.16;5050821;28;20174;-72
2021/12/08 07:38:26;;;;;;;21.40;12.33;;;;;;;4.83;100.00;-23951.56;5050518;28;20309;-72
2021/12/08 07:41:10;;;;;;;17.80;11.37;;;;;;;4.78;100.00;-23950.00;5049805;28;20321;-73
2021/12/08 07:43:41;;;;;;;20.47;11.73;;;;;;;4.55;100.00;-23943.47;5052058;28;20214;-73
2021/12/08 07:46:12;;;;;;;18.93;12.20;;;;;;;4.64;100.00;-23946.03;5052128;28;20250;-76
2021/12/08 07:48:45;;;;;;;20.27;11.87;;;;;;;4.79;100.00;-23950.28;5050730;28;20619;-73
2021/12/08 07:51:31;;;;;;;21.20;12.13;;;;;;;4.54;100.00;-23943.19;5052435;28;20179;-73
2021/12/08 07:53:58;;;;;;;20.67;12.73;;;;;;;4.87;100.00;-23952.56;5051225;28;20244;-73
2021/12/08 07:56:27;;;;;;;20.27;12.20;;;;;;;4.67;100.00;-23947.03;5050463;28;20250;-73
2021/12/08 07:59:00;;;;;;;20.87;12.77;;;;;;;4.92;100.00;-23953.84;5051014;28;20182;-73
2021/12/08 08:01:32;;;;;;;21.27;12.20;;;;;;;4.74;100.00;-23948.88;5051668;28;20186;-73
2021/12/08 08:03:59;;;;;;;23.00;12.90;;;;;;;4.61;100.00;-23945.31;5051690;28;20167;-72
2021/12/08 08:06:33;;;;;;;19.73;12.67;;;;;;;4.60;100.00;-23944.88;5050220;28;20633;-73
2021/12/08 08:09:00;;;;;;;18.77;12.27;;;;;;;5.09;100.00;-23958.69;5051700;28;20228;-76
2021/12/08 08:11:35;;;;;;;20.13;13.07;;;;;;;5.09;100.00;-23958.69;5050613;28;20217;-74
2021/12/08 08:14:02;;;;;;;21.67;12.50;;;;;;;4.71;100.00;-23948.03;5050802;28;20174;-74
2021/12/08 08:16:32;;;;;;;23.23;12.70;;;;;;;4.29;100.00;-23936.19;5049303;28;20662;-72
2021/12/08 08:19:05;;;;;;;21.80;12.97;;;;;;;5.21;100.00;-23962.25;5050250;28;20246;-72
2021/12/08 08:21:36;;;;;;;21.63;13.03;;;;;;;5.28;100.00;-23964.22;5050550;28;20186;-73
2021/12/08 08:24:03;;;;;;;21.40;12.87;;;;;;;5.36;100.00;-23966.38;5051547;28;20178;-72
2021/12/08 08:26:30;;;;;;;24.27;14.20;;;;;;;5.45;100.00;-23968.78;5051505;28;20178;-72
2021/12/08 08:28:57;;;;;;;24.33;14.13;;;;;;;5.37;100.00;-23966.66;5051557;28;20652;-72
2021/12/08 08:31:31;;;;;;;22.90;13.43;;;;;;;5.27;100.00;-23963.94;5053051;28;20202;-72
2021/12/08 08:33:57;;;;;;;23.97;14.03;;;;;;;5.58;100.00;-23972.63;5052348;28;20201;-73
2021/12/08 08:36:28;;;;;;;23.20;13.70;;;;;;;4.87;100.00;-23952.56;5057611;28;20182;-74
2021/12/08 08:39:07;;;;;;;22.13;13.37;;;;;;;4.45;100.00;-23940.91;5061616;28;20240;-73
2021/12/08 08:41:37;;;;;;;20.23;13.83;;;;;;;5.71;100.00;-23976.31;5056732;28;20226;-73
2021/12/08 08:44:09;;;;;;;20.83;13.07;;;;;;;5.60;100.00;-23973.03;5050804;28;20187;-73
2021/12/08 08:46:38;;;;;;;24.17;13.77;;;;;;;5.66;100.00;-23974.75;5053579;28;20171;-73
2021/12/08 08:49:17;;;;;;;20.60;12.87;;;;;;;5.57;100.00;-23972.19;5051903;28;20183;-74
2021/12/08 08:51:49;;;;;;;23.10;13.50;;;;;;;5.68;100.00;-23975.47;5055456;28;20171;-72
2021/12/08 08:54:20;;;;;;;22.03;13.17;;;;;;;5.25;100.00;-23963.25;5054369;28;20207;-72
2021/12/08 08:56:55;;;;;;;23.47;13.73;;;;;;;5.85;100.00;-23980.16;5054155;28;20178;-72
2021/12/08 08:59:26;;;;;;;25.20;14.27;;;;;;;5.81;100.00;-23979.00;5054011;28;20623;-73
2021/12/08 09:01:55;;;;;;;25.37;13.10;;;;;;;5.46;100.00;-23969.22;5055308;28;20577;-73
2021/12/08 09:04:31;;;;;;;23.33;13.30;;;;;;;5.45;100.00;-23968.94;5055247;28;20206;-73
2021/12/08 09:07:02;;;;;;;22.20;13.03;;;;;;;5.43;100.00;-23968.22;5050999;28;20175;-73
2021/12/08 09:09:33;;;;;;;25.37;13.70;;;;;;;5.56;100.00;-23972.06;5055406;28;20170;-73
2021/12/08 09:12:12;;;;;;;23.57;13.80;;;;;;;5.19;100.00;-23961.66;5054898;28;20174;-73
2021/12/08 09:15:09;;;;;;;24.17;13.67;;;;;;;5.58;100.00;-23972.63;5057791;28;20584;-72
2021/12/08 09:17:40;;;;;;;21.70;12.57;;;;;;;5.01;100.00;-23956.56;5054274;28;20220;-73
2021/12/08 09:20:33;;;;;;;24.80;12.47;;;;;;;5.44;100.00;-23968.63;5055283;28;20214;-72
2021/12/08 09:23:10;;;;;;;29.00;15.67;;;;;;;5.12;100.00;-23959.69;5061214;28;20225;-76
2021/12/08 09:25:42;;;;;;;27.27;15.03;;;;;;;5.21;100.00;-23962.25;5052397;28;20736;-73
2021/12/08 09:28:14;;;;;;;24.83;14.83;;;;;;;5.27;100.00;-23963.81;5054852;28;20262;-73
2021/12/08 09:30:51;;;;;;;22.80;13.13;;;;;;;3.88;100.00;-23924.81;5053281;28;20186;-76
2021/12/08 09:33:25;;;;;;;22.43;14.07;;;;;;;5.06;100.00;-23957.97;5054417;28;20182;-72
2021/12/08 09:36:00;;;;;;;28.30;14.20;;;;;;;5.84;100.00;-23979.88;5053410;28;20169;-73
2021/12/08 09:38:31;;;;;;;25.13;14.03;;;;;;;6.04;100.00;-23985.56;5054815;28;20190;-73
2021/12/08 09:41:02;;;;;;;26.10;13.13;;;;;;;5.80;100.00;-23978.72;5053234;28;20227;-72
2021/12/08 09:43:38;;;;;;;24.93;13.63;;;;;;;6.13;100.00;-23988.13;5054478;28;20704;-72
2021/12/08 09:46:09;;;;;;;24.67;14.17;;;;;;;6.17;100.00;-23989.25;5053370;28;20719;-73
2021/12/08 09:48:41;;;;;;;26.13;14.80;;;;;;;5.82;100.00;-23979.31;5053023;28;20179;-73
2021/12/08 09:51:07;;;;;;;19.47;13.10;;;;;;;6.03;100.00;-23985.28;5052890;28;20178;-73
2021/12/08 09:53:34;;;;;;;25.50;13.33;;;;;;;6.08;100.00;-23986.56;5054242;28;20273;-73
2021/12/08 09:56:01;;;;;;;21.90;12.87;;;;;;;6.15;100.00;-23988.69;5053827;28;20178;-72
2021/12/08 09:58:27;;;;;;;26.73;13.57;;;;;;;6.10;100.00;-23987.13;5051461;28;20266;-74
2021/12/08 10:00:57;;;;;;;20.87;12.73;;;;;;;6.18;100.00;-23989.53;5052225;28;20604;-73
2021/12/08 10:03:24;;;;;;;20.93;12.33;;;;;;;5.74;100.00;-23977.16;5052439;28;20195;-72
2021/12/08 10:05:50;;;;;;;21.57;12.20;;;;;;;5.89;100.00;-23981.28;5053394;28;20181;-74
2021/12/08 10:08:16;;;;;;;22.13;13.20;;;;;;;6.32;100.00;-23993.38;5053009;28;20174;-74
2021/12/08 10:10:43;;;;;;;21.47;12.83;;;;;;;6.20;100.00;-23990.09;5053580;28;20178;-72
2021/12/08 10:13:10;;;;;;;21.23;12.07;;;;;;;6.35;100.00;-23994.06;5053373;28;20231;-72
2021/12/08 10:15:37;;;;;;;20.80;12.00;;;;;;;6.06;100.00;-23985.97;5053160;28;20171;-73
2021/12/08 10:18:04;;;;;;;17.47;11.17;;;;;;;6.25;100.00;-23991.22;5051868;28;20638;-75
2021/12/08 10:20:37;;;;;;;18.37;11.80;;;;;;;6.10;100.00;-23987.25;5051580;28;20181;-72
2021/12/08 10:23:11;;;;;;;22.23;11.70;;;;;;;6.59;100.00;-24000.88;5051749;28;20589;-72
2021/12/08 10:25:41;;;;;;;18.50;11.20;;;;;;;6.46;100.00;-23997.19;5053577;28;20181;-72
2021/12/08 10:28:41;;;;;;;18.70;10.57;;;;;;;6.49;100.00;-23998.06;5053687;28;20273;-74
2021/12/08 10:31:14;;;;;;;16.93;10.40;;;;;;;6.56;100.00;-24000.03;5038833;28;20240;-73
2021/12/08 10:34:04;;;;;;;16.53;10.93;;;;;;;6.17;100.00;-23989.25;5052583;28;20183;-73
2021/12/08 10:39:09;;;;;;;20.53;11.57;;;;;;;6.44;100.00;-23996.63;5052815;28;20178;-73
2021/12/08 10:41:45;;;;;;;18.27;10.60;;;;;;;6.01;100.00;-23984.56;5052285;28;20657;-73
2021/12/08 10:44:11;;;;;;;18.23;11.13;;;;;;;6.65;100.00;-24002.72;5051128;28;20186;-73
2021/12/08 10:46:38;;;;;;;15.90;10.47;;;;;;;6.85;100.00;-24008.25;5052322;28;20174;-73
2021/12/08 10:54:34;;;;;;;16.43;10.67;;;;;;;6.48;100.00;-23997.75;5052905;28;20173;-74
2021/12/08 10:57:04;;;;;;;15.07;10.07;;;;;;;6.69;100.00;-24003.59;5052742;28;20162;-73
2021/12/08 10:59:59;;;;;;;17.17;10.60;;;;;;;7.16;100.00;-24016.91;5052695;28;20174;-73
2021/12/08 11:02:45;;;;;;;21.83;10.83;;;;;;;7.17;100.00;-24017.06;5052405;28;20646;-71
2021/12/08 11:05:28;;;;;;;17.60;10.17;;;;;;;7.36;100.00;-24022.44;5052922;28;20171;-72
2021/12/08 11:08:08;;;;;;;17.30;11.13;;;;;;;7.19;100.00;-24017.63;5051988;28;20194;-72
2021/12/08 11:10:38;;;;;;;21.67;10.53;;;;;;;7.41;100.00;-24023.88;5035533;28;20185;-71
2021/12/08 11:13:04;;;;;;;17.97;11.00;;;;;;;7.50;100.00;-24026.56;5052708;28;20193;-73
2021/12/08 11:15:31;;;;;;;16.40;10.20;;;;;;;6.97;100.00;-24011.66;5052177;28;20645;-71
2021/12/08 11:18:10;;;;;;;15.63;10.40;;;;;;;7.60;100.00;-24029.25;5052167;28;20236;-71
2021/12/08 11:20:59;;;;;;;16.40;10.97;;;;;;;7.69;100.00;-24031.66;5050341;28;20185;-72
2021/12/08 11:23:39;;;;;;;17.43;11.40;;;;;;;7.63;100.00;-24029.97;5049276;28;20506;-72
2021/12/08 11:26:18;;;;;;;17.70;10.87;;;;;;;7.60;100.00;-24029.09;5048219;28;20190;-75
2021/12/08 11:28:52;;;;;;;18.53;10.87;;;;;;;7.27;100.00;-24019.91;5050473;28;20209;-74
2021/12/08 11:31:18;;;;;;;16.63;11.03;;;;;;;7.19;100.00;-24017.78;5050842;28;20269;-73
2021/12/08 11:33:50;;;;;;;18.27;11.43;;;;;;;7.59;100.00;-24028.81;5047906;28;20626;-74
2021/12/08 11:36:19;;;;;;;16.47;10.80;;;;;;;7.72;100.00;-24032.50;5050038;28;20649;-72
2021/12/08 11:38:49;;;;;;;15.80;10.63;;;;;;;7.70;100.00;-24031.94;5051024;28;20646;-72
2021/12/08 11:41:44;;;;;;;15.67;10.83;;;;;;;7.75;100.00;-24033.50;5051016;28;20236;-74
2021/12/08 11:44:18;;;;;;;15.20;10.60;;;;;;;7.77;100.00;-24033.94;5082492;28;20221;-72
2021/12/08 11:46:51;;;;;;;15.93;10.37;;;;;;;7.67;100.00;-24031.09;5043118;28;20191;-72
2021/12/08 11:49:19;;;;;;;17.53;10.50;;;;;;;7.70;100.00;-24032.09;5051053;28;20189;-72
2021/12/08 11:51:44;;;;;;;15.90;10.53;;;;;;;7.78;100.00;-24034.34;5061435;28;20602;-72
2021/12/08 11:54:31;;;;;;;16.90;10.60;;;;;;;7.87;100.00;-24036.75;5051102;28;20282;-72
2021/12/08 11:57:12;;;;;;;15.63;10.47;;;;;;;7.39;100.00;-24023.31;5048699;28;20232;-72
2021/12/08 11:59:55;;;;;;;18.13;10.60;;;;;;;8.04;100.00;-24041.56;5050765;28;20257;-73
2021/12/08 12:02:25;;;;;;;17.57;10.70;;;;;;;8.00;100.00;-24040.59;5052005;28;20689;-72
2021/12/08 12:04:50;;;;;;;20.43;11.23;;;;;;;7.79;100.00;-24034.63;5050690;28;20183;-72
2021/12/08 12:07:17;;;;;;;21.67;12.27;;;;;;;7.76;100.00;-24033.66;5051398;28;20640;-74
2021/12/08 12:09:43;;;;;;;16.30;10.87;;;;;;;7.96;100.00;-24039.44;5051789;28;20178;-72
2021/12/08 12:12:09;;;;;;;18.73;11.70;;;;;;;7.63;100.00;-24030.09;5049892;28;20179;-73
2021/12/08 12:14:35;;;;;;;16.87;10.90;;;;;;;7.60;100.00;-24029.25;5051350;28;20535;-73
2021/12/08 12:17:01;;;;;;;19.00;11.30;;;;;;;7.83;100.00;-24035.78;5051521;28;20190;-73
2021/12/08 12:19:47;;;;;;;17.40;10.73;;;;;;;7.77;100.00;-24034.06;5049545;28;20178;-73
2021/12/08 12:22:27;;;;;;;17.70;10.53;;;;;;;7.61;100.00;-24029.41;5051456;28;20567;-73
2021/12/08 12:25:11;;;;;;;15.17;10.67;;;;;;;8.19;100.00;-24045.81;5051849;28;20262;-73